地図

経路データ

SID SEASON NUMBER BASIN SUBBASIN NAME ISO_TIME NATURE LAT LON WMO_WIND WMO_PRES WMO_AGENCY TRACK_TYPE DIST2LAND LANDFALL IFLAG USA_AGENCY USA_ATCF_ID USA_LAT USA_LON USA_RECORD USA_STATUS USA_WIND USA_PRES USA_SSHS USA_R34_NE USA_R34_SE USA_R34_SW USA_R34_NW USA_R50_NE USA_R50_SE USA_R50_SW USA_R50_NW USA_R64_NE USA_R64_SE USA_R64_SW USA_R64_NW USA_POCI USA_ROCI USA_RMW USA_EYE TOKYO_LAT TOKYO_LON TOKYO_GRADE TOKYO_WIND TOKYO_PRES TOKYO_R50_DIR TOKYO_R50_LONG TOKYO_R50_SHORT TOKYO_R30_DIR TOKYO_R30_LONG TOKYO_R30_SHORT TOKYO_LAND CMA_LAT CMA_LON CMA_CAT CMA_WIND CMA_PRES HKO_LAT HKO_LON HKO_CAT HKO_WIND HKO_PRES NEWDELHI_LAT NEWDELHI_LON NEWDELHI_GRADE NEWDELHI_WIND NEWDELHI_PRES NEWDELHI_CI NEWDELHI_DP NEWDELHI_POCI REUNION_LAT REUNION_LON REUNION_TYPE REUNION_WIND REUNION_PRES REUNION_TNUM REUNION_CI REUNION_RMW REUNION_R34_NE REUNION_R34_SE REUNION_R34_SW REUNION_R34_NW REUNION_R50_NE REUNION_R50_SE REUNION_R50_SW REUNION_R50_NW REUNION_R64_NE REUNION_R64_SE REUNION_R64_SW REUNION_R64_NW BOM_LAT BOM_LON BOM_TYPE BOM_WIND BOM_PRES BOM_TNUM BOM_CI BOM_RMW BOM_R34_NE BOM_R34_SE BOM_R34_SW BOM_R34_NW BOM_R50_NE BOM_R50_SE BOM_R50_SW BOM_R50_NW BOM_R64_NE BOM_R64_SE BOM_R64_SW BOM_R64_NW BOM_ROCI BOM_POCI BOM_EYE BOM_POS_METHOD BOM_PRES_METHOD NADI_LAT NADI_LON NADI_CAT NADI_WIND NADI_PRES WELLINGTON_LAT WELLINGTON_LON WELLINGTON_WIND WELLINGTON_PRES DS824_LAT DS824_LON DS824_STAGE DS824_WIND DS824_PRES TD9636_LAT TD9636_LON TD9636_STAGE TD9636_WIND TD9636_PRES TD9635_LAT TD9635_LON TD9635_WIND TD9635_PRES TD9635_ROCI NEUMANN_LAT NEUMANN_LON NEUMANN_CLASS NEUMANN_WIND NEUMANN_PRES MLC_LAT MLC_LON MLC_CLASS MLC_WIND MLC_PRES USA_GUST BOM_GUST BOM_GUST_PER REUNION_GUST REUNION_GUST_PER USA_SEAHGT USA_SEARAD_NE USA_SEARAD_SE USA_SEARAD_SW USA_SEARAD_NW STORM_SPEED STORM_DIR
1966350N08090 1966 119 NI BB NOT_NAMED 1966-12-15 18:00:00 TS 7.70000 90.4000 main 580 580 O________O____ jtwc_io IO181966 7.70000 90.4000 -1 7.70000 90.4000 TC 3 264
1966350N08090 1966 119 NI BB NOT_NAMED 1966-12-15 21:00:00 TS 7.68502 90.2625 main 590 590 P________P____ IO181966 7.68502 90.2625 -1 7.68502 90.2625 TC 3 270
1966350N08090 1966 119 NI BB NOT_NAMED 1966-12-16 00:00:00 TS 7.70000 90.1000 main 610 610 O________O____ jtwc_io IO181966 7.70000 90.1000 -1 7.70000 90.1000 TC 25 4 283
1966350N08090 1966 119 NI BB NOT_NAMED 1966-12-16 03:00:00 TS 7.77330 89.8888 main 635 635 P________PO___ IO181966 7.76996 89.8875 -1 7.76996 89.8875 TC 25 7.80000 89.9000 1 6 292
1966350N08090 1966 119 NI BB NOT_NAMED 1966-12-16 06:00:00 TS 7.91226 89.5829 main 670 670 O________OP___ jtwc_io IO181966 7.90000 89.6000 -1 7.90000 89.6000 TC 25 7.96131 89.5144 1 8 295
1966350N08090 1966 119 NI BB NOT_NAMED 1966-12-16 09:00:00 TS 8.10495 89.1845 main 719 719 P________PP___ IO181966 8.10008 89.2001 -1 8.10008 89.2001 TC 25 8.11794 89.1428 1 9 296
1966350N08090 1966 119 NI BB NOT_NAMED 1966-12-16 12:00:00 TS 8.28853 88.8000 main 769 743 O________OP___ jtwc_io IO181966 8.30000 88.8000 -1 8.30000 88.8000 TC 25 8.26559 88.7999 1 7 295
1966350N08090 1966 119 NI BB NOT_NAMED 1966-12-16 15:00:00 TS 8.40995 88.5183 main 743 723 P________PO___ IO181966 8.41493 88.5274 -1 8.41493 88.5274 TC 25 8.40000 88.5000 1 6 293
1966350N08090 1966 119 NI BB NOT_NAMED 1966-12-16 18:00:00 TS 8.50607 88.2837 main 723 703 O________OP___ jtwc_io IO181966 8.50000 88.3000 -1 8.50000 88.3000 TC 25 8.51822 88.2511 1 5 293
1966350N08090 1966 119 NI BB NOT_NAMED 1966-12-16 21:00:00 TS 8.60739 88.0449 main 692 672 P________PP___ IO181966 8.59998 88.0500 -1 8.59998 88.0500 TC 25 8.62220 88.0348 1 5 293
1966350N08090 1966 119 NI BB NOT_NAMED 1966-12-17 00:00:00 TS 8.70504 87.8087 main 672 652 O________OP___ jtwc_io IO181966 8.70000 87.8000 -1 8.70000 87.8000 TC 25 8.71510 87.8261 1 5 293
1966350N08090 1966 119 NI BB NOT_NAMED 1966-12-17 03:00:00 TS 8.80498 87.5717 main 652 623 P________PO___ IO181966 8.80747 87.5575 -1 8.80747 87.5575 TC 25 8.80000 87.6000 1 5 291
1966350N08090 1966 119 NI BB NOT_NAMED 1966-12-17 06:00:00 TS 8.89547 87.2964 main 623 590 O________OP___ jtwc_io IO181966 8.90000 87.3000 -1 8.90000 87.3000 TC 25 8.88640 87.2891 1 6 284
1966350N08090 1966 119 NI BB NOT_NAMED 1966-12-17 09:00:00 TS 8.95509 86.9825 main 593 561 P________PP___ IO181966 8.95002 86.9925 -1 8.95002 86.9925 TC 25 8.96523 86.9626 1 6 281
1966350N08090 1966 119 NI BB NOT_NAMED 1966-12-17 12:00:00 TS 9.01214 86.6849 main 561 544 O________OP___ jtwc_io IO181966 9.00000 86.7000 -1 9.00000 86.7000 TC 25 9.03641 86.6547 1 6 286
1966350N08090 1966 119 NI BB NOT_NAMED 1966-12-17 15:00:00 TS 9.10499 86.4467 main 533 526 P________PO___ IO181966 9.10748 86.4700 -1 9.10748 86.4700 TC 25 9.10000 86.4000 1 4 293
1966350N08090 1966 119 NI BB NOT_NAMED 1966-12-17 18:00:00 TS 9.17754 86.2849 main 526 516 O________OP___ jtwc_io IO181966 9.20000 86.3000 -1 9.20000 86.3000 TC 25 9.13263 86.2545 1 3 288
1966350N08090 1966 119 NI BB NOT_NAMED 1966-12-17 21:00:00 TS 9.18741 86.1824 main 516 506 P________PP___ IO181966 9.19997 86.1925 -1 9.19997 86.1925 TC 25 9.16228 86.1623 1 2 278
1966350N08090 1966 119 NI BB NOT_NAMED 1966-12-18 00:00:00 TS 9.20360 86.0963 main 506 495 O________OP___ jtwc_io IO181966 9.20000 86.1000 -1 9.20000 86.1000 TC 25 9.21079 86.0889 1 2 293
1966350N08090 1966 119 NI BB NOT_NAMED 1966-12-18 03:00:00 TS 9.27500 85.9717 main 500 484 P________PO___ IO181966 9.26250 85.9575 -1 9.26250 85.9575 TC 25 9.30000 86.0000 1 4 308
1966350N08090 1966 119 NI BB NOT_NAMED 1966-12-18 06:00:00 TS 9.42304 85.8115 main 484 479 O________OP___ jtwc_io IO181966 9.40000 85.8000 -1 9.40000 85.8000 TC 25 9.46912 85.8345 1 5 320
1966350N08090 1966 119 NI BB NOT_NAMED 1966-12-18 09:00:00 TS 9.64919 85.6501 main 484 473 P________PP___ IO181966 9.63499 85.6500 -1 9.63499 85.6500 TC 25 9.67759 85.6502 1 6 326
1966350N08090 1966 119 NI BB NOT_NAMED 1966-12-18 12:00:00 TS 9.89908 85.4886 main 478 468 O________OP___ jtwc_io IO181966 9.90000 85.5000 -1 9.90000 85.5000 TC 25 9.89725 85.4658 1 6 326
1966350N08090 1966 119 NI BB NOT_NAMED 1966-12-18 15:00:00 TS 10.1150 85.3283 main 468 463 P________PO___ IO181966 10.1225 85.3425 -1 10.1225 85.3425 TC 25 10.1000 85.3000 1 5 325
1966350N08090 1966 119 NI BB NOT_NAMED 1966-12-18 18:00:00 TS 10.2902 85.2171 main 468 463 O________OP___ jtwc_io IO181966 10.3000 85.2000 -1 10.3000 85.2000 TC 25 10.2705 85.2514 1 4 329
1966350N08090 1966 119 NI BB NOT_NAMED 1966-12-18 21:00:00 TS 10.4206 85.1424 main 463 459 P________PP___ IO181966 10.4225 85.1075 -1 10.4225 85.1075 TC 25 10.4168 85.2123 1 3 321
1966350N08090 1966 119 NI BB NOT_NAMED 1966-12-19 00:00:00 TS 10.5099 85.0390 main 459 456 O________OP___ jtwc_io IO181966 10.5000 85.0000 -1 10.5000 85.0000 TC 25 10.5297 85.1171 1 3 301
1966350N08090 1966 119 NI BB NOT_NAMED 1966-12-19 03:00:00 TS 10.5765 84.8833 main 456 429 P________PO___ IO181966 10.5648 84.8750 -1 10.5648 84.8750 TC 25 10.6000 84.9000 1 5 282
1966350N08090 1966 119 NI BB NOT_NAMED 1966-12-19 06:00:00 TS 10.6088 84.5656 main 429 382 O________OP___ jtwc_io IO181966 10.6000 84.6000 -1 10.6000 84.6000 TC 25 10.6220 84.5140 1 8 272
1966350N08090 1966 119 NI BB NOT_NAMED 1966-12-19 09:00:00 TS 10.6064 84.0374 main 373 320 P________PP___ IO181966 10.6080 84.0750 -1 10.6080 84.0750 TC 25 10.6043 83.9872 1 12 269
1966350N08090 1966 119 NI BB NOT_NAMED 1966-12-19 12:00:00 TS 10.5797 83.3834 main 320 247 O________OP___ jtwc_io IO181966 10.6000 83.4000 -1 10.6000 83.4000 TC 25 10.5594 83.3669 1 13 265
1966350N08090 1966 119 NI BB NOT_NAMED 1966-12-19 15:00:00 NR 10.5000 82.7000 main 247 __________O___ IO181966 -1 TC 10.5000 82.7000 1 14 263

IBTrACS Databaseについて

本データベースは、米国NOAAが公開する1842年以降の世界の熱帯低気圧のベストトラックデータアーカイブInternational Best Track Archive for Climate Stewardship (IBTrACS)を、ウェブで閲覧しやすい形式に変換したものです。

最終更新日:2021-10-19